sensor_id;sensor_type;location;lat;lon;timestamp;P1;durP1;ratioP1;P2;durP2;ratioP2
17424;SDS011;8830;50.978;5.058;2023-04-01T00:01:52;2.40;;;0.80;;
17424;SDS011;8830;50.978;5.058;2023-04-01T00:04:20;3.00;;;0.90;;
17424;SDS011;8830;50.978;5.058;2023-04-01T00:06:47;2.50;;;0.90;;
17424;SDS011;8830;50.978;5.058;2023-04-01T00:09:14;3.93;;;0.70;;
17424;SDS011;8830;50.978;5.058;2023-04-01T00:11:41;2.10;;;0.80;;
17424;SDS011;8830;50.978;5.058;2023-04-01T00:14:09;1.70;;;0.73;;
17424;SDS011;8830;50.978;5.058;2023-04-01T00:16:37;2.87;;;0.70;;
17424;SDS011;8830;50.978;5.058;2023-04-01T00:19:05;1.63;;;0.50;;
17424;SDS011;8830;50.978;5.058;2023-04-01T00:21:34;2.90;;;0.70;;
17424;SDS011;8830;50.978;5.058;2023-04-01T00:24:02;2.40;;;0.80;;
17424;SDS011;8830;50.978;5.058;2023-04-01T00:26:28;2.13;;;0.60;;
17424;SDS011;8830;50.978;5.058;2023-04-01T00:28:55;3.70;;;0.80;;
17424;SDS011;8830;50.978;5.058;2023-04-01T00:31:22;3.13;;;0.63;;
17424;SDS011;8830;50.978;5.058;2023-04-01T00:33:50;3.57;;;1.03;;
17424;SDS011;8830;50.978;5.058;2023-04-01T00:36:20;1.90;;;0.83;;
17424;SDS011;8830;50.978;5.058;2023-04-01T00:38:48;2.43;;;0.60;;
17424;SDS011;8830;50.978;5.058;2023-04-01T00:41:15;3.43;;;0.87;;
17424;SDS011;8830;50.978;5.058;2023-04-01T00:43:44;2.07;;;0.60;;
17424;SDS011;8830;50.978;5.058;2023-04-01T00:46:12;2.07;;;0.77;;
17424;SDS011;8830;50.978;5.058;2023-04-01T00:48:41;1.73;;;0.60;;
17424;SDS011;8830;50.978;5.058;2023-04-01T00:51:11;2.20;;;0.70;;
17424;SDS011;8830;50.978;5.058;2023-04-01T00:53:43;1.80;;;0.70;;
17424;SDS011;8830;50.978;5.058;2023-04-01T00:56:13;2.00;;;0.60;;
17424;SDS011;8830;50.978;5.058;2023-04-01T00:58:46;1.50;;;0.80;;
17424;SDS011;8830;50.978;5.058;2023-04-01T01:01:17;4.17;;;0.80;;
17424;SDS011;8830;50.978;5.058;2023-04-01T01:03:46;3.93;;;0.90;;
17424;SDS011;8830;50.978;5.058;2023-04-01T01:06:17;2.43;;;0.57;;
17424;SDS011;8830;50.978;5.058;2023-04-01T01:08:59;2.67;;;0.80;;
17424;SDS011;8830;50.978;5.058;2023-04-01T01:11:37;2.47;;;0.70;;
17424;SDS011;8830;50.978;5.058;2023-04-01T01:14:09;4.03;;;0.70;;
17424;SDS011;8830;50.978;5.058;2023-04-01T01:16:45;3.53;;;0.60;;
17424;SDS011;8830;50.978;5.058;2023-04-01T01:19:21;2.67;;;0.80;;
17424;SDS011;8830;50.978;5.058;2023-04-01T01:24:54;0.73;;;0.40;;
17424;SDS011;8830;50.978;5.058;2023-04-01T01:27:35;1.63;;;0.40;;
17424;SDS011;8830;50.978;5.058;2023-04-01T01:30:14;1.40;;;0.57;;
17424;SDS011;8830;50.978;5.058;2023-04-01T01:33:02;1.70;;;0.60;;
17424;SDS011;8830;50.978;5.058;2023-04-01T01:35:44;1.17;;;0.50;;
17424;SDS011;8830;50.978;5.058;2023-04-01T01:38:15;1.20;;;0.50;;
17424;SDS011;8830;50.978;5.058;2023-04-01T01:40:45;1.83;;;0.70;;
17424;SDS011;8830;50.978;5.058;2023-04-01T01:43:18;2.57;;;0.70;;
17424;SDS011;8830;50.978;5.058;2023-04-01T01:45:50;1.43;;;0.53;;
17424;SDS011;8830;50.978;5.058;2023-04-01T01:48:20;1.57;;;0.60;;
17424;SDS011;8830;50.978;5.058;2023-04-01T01:50:49;3.40;;;0.60;;
17424;SDS011;8830;50.978;5.058;2023-04-01T01:53:17;1.77;;;0.80;;
17424;SDS011;8830;50.978;5.058;2023-04-01T01:55:45;2.60;;;0.60;;
17424;SDS011;8830;50.978;5.058;2023-04-01T01:58:14;2.20;;;0.40;;
17424;SDS011;8830;50.978;5.058;2023-04-01T02:00:46;1.40;;;0.70;;
17424;SDS011;8830;50.978;5.058;2023-04-01T02:03:16;1.60;;;0.87;;
17424;SDS011;8830;50.978;5.058;2023-04-01T02:05:48;1.90;;;0.77;;
17424;SDS011;8830;50.978;5.058;2023-04-01T02:08:18;1.03;;;0.63;;
17424;SDS011;8830;50.978;5.058;2023-04-01T02:10:49;1.67;;;0.60;;
17424;SDS011;8830;50.978;5.058;2023-04-01T02:13:24;5.27;;;0.80;;
17424;SDS011;8830;50.978;5.058;2023-04-01T02:15:56;1.67;;;0.80;;
17424;SDS011;8830;50.978;5.058;2023-04-01T02:18:30;1.77;;;0.87;;
17424;SDS011;8830;50.978;5.058;2023-04-01T02:21:01;1.47;;;0.80;;
17424;SDS011;8830;50.978;5.058;2023-04-01T02:23:30;1.43;;;0.80;;
17424;SDS011;8830;50.978;5.058;2023-04-01T02:25:59;3.30;;;0.77;;
17424;SDS011;8830;50.978;5.058;2023-04-01T02:28:27;2.47;;;0.90;;
17424;SDS011;8830;50.978;5.058;2023-04-01T02:30:55;1.33;;;0.83;;
17424;SDS011;8830;50.978;5.058;2023-04-01T02:33:23;2.23;;;0.80;;
17424;SDS011;8830;50.978;5.058;2023-04-01T02:35:50;1.37;;;0.80;;
17424;SDS011;8830;50.978;5.058;2023-04-01T02:38:19;1.20;;;1.00;;
17424;SDS011;8830;50.978;5.058;2023-04-01T02:40:47;1.10;;;0.90;;
17424;SDS011;8830;50.978;5.058;2023-04-01T02:43:16;3.60;;;1.03;;
17424;SDS011;8830;50.978;5.058;2023-04-01T02:45:44;1.20;;;0.97;;
17424;SDS011;8830;50.978;5.058;2023-04-01T02:48:12;1.40;;;1.30;;
17424;SDS011;8830;50.978;5.058;2023-04-01T02:50:40;1.57;;;1.30;;
17424;SDS011;8830;50.978;5.058;2023-04-01T02:53:07;2.10;;;1.27;;
17424;SDS011;8830;50.978;5.058;2023-04-01T02:55:35;2.20;;;1.40;;
17424;SDS011;8830;50.978;5.058;2023-04-01T02:58:02;3.43;;;1.80;;
17424;SDS011;8830;50.978;5.058;2023-04-01T03:00:30;1.63;;;1.30;;
17424;SDS011;8830;50.978;5.058;2023-04-01T03:02:57;3.50;;;1.63;;
17424;SDS011;8830;50.978;5.058;2023-04-01T03:05:24;1.70;;;1.60;;
17424;SDS011;8830;50.978;5.058;2023-04-01T03:07:51;3.23;;;1.47;;
17424;SDS011;8830;50.978;5.058;2023-04-01T03:10:18;5.00;;;1.50;;
17424;SDS011;8830;50.978;5.058;2023-04-01T03:12:46;2.00;;;1.80;;
17424;SDS011;8830;50.978;5.058;2023-04-01T03:15:14;2.30;;;1.30;;
17424;SDS011;8830;50.978;5.058;2023-04-01T03:17:41;3.87;;;1.70;;
17424;SDS011;8830;50.978;5.058;2023-04-01T03:20:09;4.10;;;2.43;;
17424;SDS011;8830;50.978;5.058;2023-04-01T03:22:37;3.03;;;1.63;;
17424;SDS011;8830;50.978;5.058;2023-04-01T03:25:05;2.93;;;1.57;;
17424;SDS011;8830;50.978;5.058;2023-04-01T03:27:39;3.30;;;1.60;;
17424;SDS011;8830;50.978;5.058;2023-04-01T03:30:09;3.50;;;1.90;;
17424;SDS011;8830;50.978;5.058;2023-04-01T03:32:36;2.43;;;1.57;;
17424;SDS011;8830;50.978;5.058;2023-04-01T03:35:05;3.47;;;1.60;;
17424;SDS011;8830;50.978;5.058;2023-04-01T03:37:32;1.50;;;1.20;;
17424;SDS011;8830;50.978;5.058;2023-04-01T03:39:59;2.87;;;1.50;;
17424;SDS011;8830;50.978;5.058;2023-04-01T03:42:26;1.93;;;1.27;;
17424;SDS011;8830;50.978;5.058;2023-04-01T03:44:53;4.03;;;1.70;;
17424;SDS011;8830;50.978;5.058;2023-04-01T03:47:22;1.40;;;1.30;;
17424;SDS011;8830;50.978;5.058;2023-04-01T03:49:49;2.03;;;1.20;;
17424;SDS011;8830;50.978;5.058;2023-04-01T03:52:16;1.73;;;1.10;;
17424;SDS011;8830;50.978;5.058;2023-04-01T03:54:43;3.90;;;1.40;;
17424;SDS011;8830;50.978;5.058;2023-04-01T03:57:10;2.30;;;1.00;;
17424;SDS011;8830;50.978;5.058;2023-04-01T03:59:37;1.33;;;1.00;;
17424;SDS011;8830;50.978;5.058;2023-04-01T04:02:05;4.53;;;1.10;;
17424;SDS011;8830;50.978;5.058;2023-04-01T04:04:33;1.70;;;0.90;;
17424;SDS011;8830;50.978;5.058;2023-04-01T04:07:00;2.57;;;1.20;;
17424;SDS011;8830;50.978;5.058;2023-04-01T04:09:29;2.37;;;1.00;;
17424;SDS011;8830;50.978;5.058;2023-04-01T04:11:56;2.27;;;1.07;;
17424;SDS011;8830;50.978;5.058;2023-04-01T04:14:23;2.30;;;1.20;;
17424;SDS011;8830;50.978;5.058;2023-04-01T04:16:50;1.00;;;0.80;;
17424;SDS011;8830;50.978;5.058;2023-04-01T04:19:18;1.10;;;0.80;;
17424;SDS011;8830;50.978;5.058;2023-04-01T04:21:46;2.13;;;1.30;;
17424;SDS011;8830;50.978;5.058;2023-04-01T04:24:13;2.00;;;1.20;;
17424;SDS011;8830;50.978;5.058;2023-04-01T04:26:40;2.13;;;1.10;;
17424;SDS011;8830;50.978;5.058;2023-04-01T04:29:07;3.60;;;1.40;;
17424;SDS011;8830;50.978;5.058;2023-04-01T04:31:34;1.40;;;1.10;;
17424;SDS011;8830;50.978;5.058;2023-04-01T04:34:01;1.60;;;1.30;;
17424;SDS011;8830;50.978;5.058;2023-04-01T04:36:29;1.77;;;1.20;;
17424;SDS011;8830;50.978;5.058;2023-04-01T04:38:57;1.80;;;1.40;;
17424;SDS011;8830;50.978;5.058;2023-04-01T04:41:27;5.23;;;1.60;;
17424;SDS011;8830;50.978;5.058;2023-04-01T04:43:54;1.93;;;1.33;;
17424;SDS011;8830;50.978;5.058;2023-04-01T04:46:23;1.40;;;1.30;;
17424;SDS011;8830;50.978;5.058;2023-04-01T04:48:51;1.60;;;1.30;;
17424;SDS011;8830;50.978;5.058;2023-04-01T04:51:18;2.27;;;1.50;;
17424;SDS011;8830;50.978;5.058;2023-04-01T04:53:46;1.90;;;1.50;;
17424;SDS011;8830;50.978;5.058;2023-04-01T04:56:18;2.00;;;1.47;;
17424;SDS011;8830;50.978;5.058;2023-04-01T04:58:45;1.83;;;1.40;;
17424;SDS011;8830;50.978;5.058;2023-04-01T05:01:14;3.80;;;1.93;;
17424;SDS011;8830;50.978;5.058;2023-04-01T05:03:42;2.40;;;2.10;;
17424;SDS011;8830;50.978;5.058;2023-04-01T05:06:09;2.83;;;2.40;;
17424;SDS011;8830;50.978;5.058;2023-04-01T05:08:38;4.03;;;2.60;;
17424;SDS011;8830;50.978;5.058;2023-04-01T05:11:07;3.77;;;3.10;;
17424;SDS011;8830;50.978;5.058;2023-04-01T05:13:39;3.47;;;2.47;;
17424;SDS011;8830;50.978;5.058;2023-04-01T05:16:08;4.07;;;2.67;;
17424;SDS011;8830;50.978;5.058;2023-04-01T05:18:35;3.30;;;3.00;;
17424;SDS011;8830;50.978;5.058;2023-04-01T05:21:03;6.27;;;3.13;;
17424;SDS011;8830;50.978;5.058;2023-04-01T05:23:31;2.90;;;2.70;;
17424;SDS011;8830;50.978;5.058;2023-04-01T05:25:58;4.67;;;3.27;;
17424;SDS011;8830;50.978;5.058;2023-04-01T05:28:28;4.73;;;3.60;;
17424;SDS011;8830;50.978;5.058;2023-04-01T05:30:57;3.67;;;3.37;;
17424;SDS011;8830;50.978;5.058;2023-04-01T05:33:25;4.10;;;3.70;;
17424;SDS011;8830;50.978;5.058;2023-04-01T05:35:52;4.47;;;3.77;;
17424;SDS011;8830;50.978;5.058;2023-04-01T05:38:20;3.63;;;3.33;;
17424;SDS011;8830;50.978;5.058;2023-04-01T05:40:47;3.40;;;3.20;;
17424;SDS011;8830;50.978;5.058;2023-04-01T05:43:14;3.47;;;3.17;;
17424;SDS011;8830;50.978;5.058;2023-04-01T05:45:42;3.17;;;2.83;;
17424;SDS011;8830;50.978;5.058;2023-04-01T05:48:11;3.97;;;3.50;;
17424;SDS011;8830;50.978;5.058;2023-04-01T05:50:39;3.57;;;3.27;;
17424;SDS011;8830;50.978;5.058;2023-04-01T05:53:07;2.50;;;2.40;;
17424;SDS011;8830;50.978;5.058;2023-04-01T05:55:35;2.80;;;2.60;;
17424;SDS011;8830;50.978;5.058;2023-04-01T05:58:03;3.10;;;1.90;;
17424;SDS011;8830;50.978;5.058;2023-04-01T06:00:30;1.87;;;1.77;;
17424;SDS011;8830;50.978;5.058;2023-04-01T06:02:58;1.97;;;1.77;;
17424;SDS011;8830;50.978;5.058;2023-04-01T06:05:36;1.70;;;1.60;;
17424;SDS011;8830;50.978;5.058;2023-04-01T06:08:09;4.47;;;1.67;;
17424;SDS011;8830;50.978;5.058;2023-04-01T06:10:43;2.50;;;1.60;;
17424;SDS011;8830;50.978;5.058;2023-04-01T06:13:21;2.10;;;1.90;;
17424;SDS011;8830;50.978;5.058;2023-04-01T06:15:58;1.87;;;1.23;;
17424;SDS011;8830;50.978;5.058;2023-04-01T06:18:55;1.50;;;1.40;;
17424;SDS011;8830;50.978;5.058;2023-04-01T06:25:09;1.57;;;1.40;;
17424;SDS011;8830;50.978;5.058;2023-04-01T06:27:50;1.90;;;1.70;;
17424;SDS011;8830;50.978;5.058;2023-04-01T06:30:30;4.00;;;1.50;;
17424;SDS011;8830;50.978;5.058;2023-04-01T06:33:05;1.80;;;1.70;;
17424;SDS011;8830;50.978;5.058;2023-04-01T06:35:52;1.93;;;1.40;;
17424;SDS011;8830;50.978;5.058;2023-04-01T06:38:51;1.20;;;1.10;;
17424;SDS011;8830;50.978;5.058;2023-04-01T06:41:38;1.30;;;1.13;;
17424;SDS011;8830;50.978;5.058;2023-04-01T06:44:26;1.50;;;1.20;;
17424;SDS011;8830;50.978;5.058;2023-04-01T06:47:02;2.07;;;1.10;;
17424;SDS011;8830;50.978;5.058;2023-04-01T06:49:44;1.00;;;1.00;;
17424;SDS011;8830;50.978;5.058;2023-04-01T06:52:23;0.97;;;0.90;;
17424;SDS011;8830;50.978;5.058;2023-04-01T06:54:55;2.00;;;0.93;;
17424;SDS011;8830;50.978;5.058;2023-04-01T06:57:29;0.70;;;0.70;;
17424;SDS011;8830;50.978;5.058;2023-04-01T07:00:02;1.60;;;1.50;;
17424;SDS011;8830;50.978;5.058;2023-04-01T07:02:39;0.60;;;0.60;;
17424;SDS011;8830;50.978;5.058;2023-04-01T07:05:10;0.60;;;0.60;;
17424;SDS011;8830;50.978;5.058;2023-04-01T07:07:38;1.40;;;1.00;;
17424;SDS011;8830;50.978;5.058;2023-04-01T07:10:10;0.97;;;0.60;;
17424;SDS011;8830;50.978;5.058;2023-04-01T07:12:45;1.27;;;0.63;;
17424;SDS011;8830;50.978;5.058;2023-04-01T07:15:17;0.63;;;0.50;;
17424;SDS011;8830;50.978;5.058;2023-04-01T07:17:48;1.07;;;0.60;;
17424;SDS011;8830;50.978;5.058;2023-04-01T07:20:20;0.97;;;0.70;;
17424;SDS011;8830;50.978;5.058;2023-04-01T07:22:52;0.70;;;0.70;;
17424;SDS011;8830;50.978;5.058;2023-04-01T07:25:22;0.73;;;0.50;;
17424;SDS011;8830;50.978;5.058;2023-04-01T07:27:53;0.83;;;0.60;;
17424;SDS011;8830;50.978;5.058;2023-04-01T07:30:27;1.40;;;0.60;;
17424;SDS011;8830;50.978;5.058;2023-04-01T07:33:00;1.70;;;0.70;;
17424;SDS011;8830;50.978;5.058;2023-04-01T07:35:35;0.60;;;0.60;;
17424;SDS011;8830;50.978;5.058;2023-04-01T07:38:11;1.23;;;0.83;;
17424;SDS011;8830;50.978;5.058;2023-04-01T07:40:49;1.03;;;0.87;;
17424;SDS011;8830;50.978;5.058;2023-04-01T07:43:35;0.87;;;0.60;;
17424;SDS011;8830;50.978;5.058;2023-04-01T07:46:29;0.87;;;0.70;;
17424;SDS011;8830;50.978;5.058;2023-04-01T07:49:15;1.03;;;0.80;;
17424;SDS011;8830;50.978;5.058;2023-04-01T07:51:50;0.50;;;0.50;;
17424;SDS011;8830;50.978;5.058;2023-04-01T07:54:25;1.27;;;0.77;;
17424;SDS011;8830;50.978;5.058;2023-04-01T07:57:01;0.97;;;0.70;;
17424;SDS011;8830;50.978;5.058;2023-04-01T07:59:33;0.53;;;0.50;;
17424;SDS011;8830;50.978;5.058;2023-04-01T08:02:10;1.20;;;0.67;;
17424;SDS011;8830;50.978;5.058;2023-04-01T08:04:51;0.80;;;0.77;;
17424;SDS011;8830;50.978;5.058;2023-04-01T08:07:25;0.73;;;0.73;;
17424;SDS011;8830;50.978;5.058;2023-04-01T08:10:00;0.93;;;0.70;;
17424;SDS011;8830;50.978;5.058;2023-04-01T08:12:37;1.20;;;0.90;;
17424;SDS011;8830;50.978;5.058;2023-04-01T08:15:18;0.60;;;0.60;;
17424;SDS011;8830;50.978;5.058;2023-04-01T08:17:52;1.00;;;0.70;;
17424;SDS011;8830;50.978;5.058;2023-04-01T08:20:28;0.80;;;0.80;;
17424;SDS011;8830;50.978;5.058;2023-04-01T08:23:03;1.10;;;0.80;;
17424;SDS011;8830;50.978;5.058;2023-04-01T08:25:37;1.10;;;1.03;;
17424;SDS011;8830;50.978;5.058;2023-04-01T08:28:09;1.07;;;1.00;;
17424;SDS011;8830;50.978;5.058;2023-04-01T08:30:44;3.00;;;1.30;;
17424;SDS011;8830;50.978;5.058;2023-04-01T08:33:17;1.33;;;1.00;;
17424;SDS011;8830;50.978;5.058;2023-04-01T08:35:49;3.87;;;1.10;;
17424;SDS011;8830;50.978;5.058;2023-04-01T08:38:21;1.63;;;1.00;;
17424;SDS011;8830;50.978;5.058;2023-04-01T08:40:58;1.27;;;1.17;;
17424;SDS011;8830;50.978;5.058;2023-04-01T08:43:39;1.60;;;1.50;;
17424;SDS011;8830;50.978;5.058;2023-04-01T08:49:56;1.03;;;1.03;;
17424;SDS011;8830;50.978;5.058;2023-04-01T08:52:46;0.93;;;0.80;;
17424;SDS011;8830;50.978;5.058;2023-04-01T08:55:37;1.33;;;1.23;;
17424;SDS011;8830;50.978;5.058;2023-04-01T09:01:17;1.37;;;1.00;;
17424;SDS011;8830;50.978;5.058;2023-04-01T09:04:16;1.50;;;1.40;;
17424;SDS011;8830;50.978;5.058;2023-04-01T09:07:08;1.30;;;1.00;;
17424;SDS011;8830;50.978;5.058;2023-04-01T09:13:00;1.87;;;1.77;;
17424;SDS011;8830;50.978;5.058;2023-04-01T09:18:51;2.43;;;1.97;;
17424;SDS011;8830;50.978;5.058;2023-04-01T09:24:59;1.07;;;0.90;;
17424;SDS011;8830;50.978;5.058;2023-04-01T09:27:49;1.10;;;0.90;;
17424;SDS011;8830;50.978;5.058;2023-04-01T09:30:37;1.00;;;0.60;;
17424;SDS011;8830;50.978;5.058;2023-04-01T09:33:48;0.70;;;0.70;;
17424;SDS011;8830;50.978;5.058;2023-04-01T09:36:50;2.10;;;0.80;;
17424;SDS011;8830;50.978;5.058;2023-04-01T09:39:35;0.70;;;0.50;;
17424;SDS011;8830;50.978;5.058;2023-04-01T09:45:05;1.63;;;0.50;;
17424;SDS011;8830;50.978;5.058;2023-04-01T09:47:44;0.70;;;0.70;;
17424;SDS011;8830;50.978;5.058;2023-04-01T09:50:26;0.87;;;0.80;;
17424;SDS011;8830;50.978;5.058;2023-04-01T09:53:01;0.60;;;0.60;;
17424;SDS011;8830;50.978;5.058;2023-04-01T09:59:18;0.80;;;0.80;;
17424;SDS011;8830;50.978;5.058;2023-04-01T10:02:17;1.07;;;0.90;;
17424;SDS011;8830;50.978;5.058;2023-04-01T10:05:24;0.73;;;0.73;;
17424;SDS011;8830;50.978;5.058;2023-04-01T10:08:34;1.20;;;1.00;;
17424;SDS011;8830;50.978;5.058;2023-04-01T10:11:30;2.47;;;1.00;;
17424;SDS011;8830;50.978;5.058;2023-04-01T10:14:30;1.20;;;1.00;;
17424;SDS011;8830;50.978;5.058;2023-04-01T10:17:28;1.03;;;1.00;;
17424;SDS011;8830;50.978;5.058;2023-04-01T10:32:29;0.90;;;0.90;;
17424;SDS011;8830;50.978;5.058;2023-04-01T10:39:00;1.73;;;1.60;;
17424;SDS011;8830;50.978;5.058;2023-04-01T10:42:13;1.10;;;1.10;;
17424;SDS011;8830;50.978;5.058;2023-04-01T10:45:09;1.07;;;1.07;;
17424;SDS011;8830;50.978;5.058;2023-04-01T10:48:04;1.63;;;1.50;;
17424;SDS011;8830;50.978;5.058;2023-04-01T10:50:57;1.70;;;1.50;;
17424;SDS011;8830;50.978;5.058;2023-04-01T10:56:39;1.80;;;1.70;;
17424;SDS011;8830;50.978;5.058;2023-04-01T11:05:29;2.03;;;1.93;;
17424;SDS011;8830;50.978;5.058;2023-04-01T11:12:06;3.47;;;3.27;;
17424;SDS011;8830;50.978;5.058;2023-04-01T11:14:54;4.10;;;3.83;;
17424;SDS011;8830;50.978;5.058;2023-04-01T11:18:01;4.40;;;4.10;;
17424;SDS011;8830;50.978;5.058;2023-04-01T11:21:13;4.73;;;4.33;;
17424;SDS011;8830;50.978;5.058;2023-04-01T11:24:13;5.50;;;5.10;;
17424;SDS011;8830;50.978;5.058;2023-04-01T11:26:51;4.70;;;4.30;;
17424;SDS011;8830;50.978;5.058;2023-04-01T11:29:36;4.93;;;4.53;;
17424;SDS011;8830;50.978;5.058;2023-04-01T11:32:26;5.60;;;5.10;;
17424;SDS011;8830;50.978;5.058;2023-04-01T11:37:52;6.00;;;5.50;;
17424;SDS011;8830;50.978;5.058;2023-04-01T11:40:26;6.07;;;5.47;;
17424;SDS011;8830;50.978;5.058;2023-04-01T11:43:00;6.13;;;5.63;;
17424;SDS011;8830;50.978;5.058;2023-04-01T11:45:35;5.73;;;5.30;;
17424;SDS011;8830;50.978;5.058;2023-04-01T11:48:12;5.93;;;5.23;;
17424;SDS011;8830;50.978;5.058;2023-04-01T11:51:06;5.43;;;5.07;;
17424;SDS011;8830;50.978;5.058;2023-04-01T11:53:56;5.30;;;4.90;;
17424;SDS011;8830;50.978;5.058;2023-04-01T11:59:39;5.73;;;5.33;;
17424;SDS011;8830;50.978;5.058;2023-04-01T12:02:33;3.03;;;2.83;;
17424;SDS011;8830;50.978;5.058;2023-04-01T12:05:21;2.57;;;2.37;;
17424;SDS011;8830;50.978;5.058;2023-04-01T12:08:04;2.13;;;2.03;;
17424;SDS011;8830;50.978;5.058;2023-04-01T12:10:39;2.20;;;2.00;;
17424;SDS011;8830;50.978;5.058;2023-04-01T12:13:18;3.60;;;2.80;;
17424;SDS011;8830;50.978;5.058;2023-04-01T12:15:58;3.97;;;3.30;;
17424;SDS011;8830;50.978;5.058;2023-04-01T12:18:38;3.50;;;3.27;;
17424;SDS011;8830;50.978;5.058;2023-04-01T12:21:14;3.47;;;3.27;;
17424;SDS011;8830;50.978;5.058;2023-04-01T12:23:52;4.00;;;3.70;;
17424;SDS011;8830;50.978;5.058;2023-04-01T12:26:55;3.90;;;3.60;;
17424;SDS011;8830;50.978;5.058;2023-04-01T12:29:37;4.00;;;3.70;;
17424;SDS011;8830;50.978;5.058;2023-04-01T12:32:17;3.87;;;3.67;;
17424;SDS011;8830;50.978;5.058;2023-04-01T12:34:58;4.53;;;4.13;;
17424;SDS011;8830;50.978;5.058;2023-04-01T12:37:41;5.07;;;4.67;;
17424;SDS011;8830;50.978;5.058;2023-04-01T12:46:19;5.17;;;4.77;;
17424;SDS011;8830;50.978;5.058;2023-04-01T12:51:50;5.00;;;4.50;;
17424;SDS011;8830;50.978;5.058;2023-04-01T12:57:36;4.43;;;4.03;;
17424;SDS011;8830;50.978;5.058;2023-04-01T13:00:30;4.13;;;3.73;;
17424;SDS011;8830;50.978;5.058;2023-04-01T13:03:12;3.70;;;3.50;;
17424;SDS011;8830;50.978;5.058;2023-04-01T13:06:06;4.00;;;3.70;;
17424;SDS011;8830;50.978;5.058;2023-04-01T13:08:55;4.17;;;3.73;;
17424;SDS011;8830;50.978;5.058;2023-04-01T13:11:31;3.50;;;3.30;;
17424;SDS011;8830;50.978;5.058;2023-04-01T13:17:21;3.53;;;3.23;;
17424;SDS011;8830;50.978;5.058;2023-04-01T13:19:53;4.50;;;4.20;;
17424;SDS011;8830;50.978;5.058;2023-04-01T13:22:28;3.90;;;3.57;;
17424;SDS011;8830;50.978;5.058;2023-04-01T13:25:03;3.93;;;3.63;;
17424;SDS011;8830;50.978;5.058;2023-04-01T13:27:40;4.20;;;3.90;;
17424;SDS011;8830;50.978;5.058;2023-04-01T13:30:18;4.30;;;3.70;;
17424;SDS011;8830;50.978;5.058;2023-04-01T13:32:54;2.97;;;2.50;;
17424;SDS011;8830;50.978;5.058;2023-04-01T13:35:30;3.23;;;3.03;;
17424;SDS011;8830;50.978;5.058;2023-04-01T13:38:08;2.40;;;2.30;;
17424;SDS011;8830;50.978;5.058;2023-04-01T13:41:05;3.10;;;2.87;;
17424;SDS011;8830;50.978;5.058;2023-04-01T13:43:45;4.10;;;3.80;;
17424;SDS011;8830;50.978;5.058;2023-04-01T13:46:30;3.30;;;3.10;;
17424;SDS011;8830;50.978;5.058;2023-04-01T13:49:15;3.50;;;3.20;;
17424;SDS011;8830;50.978;5.058;2023-04-01T13:52:08;3.47;;;3.17;;
17424;SDS011;8830;50.978;5.058;2023-04-01T13:57:56;2.03;;;1.70;;
17424;SDS011;8830;50.978;5.058;2023-04-01T14:00:50;1.60;;;1.50;;
17424;SDS011;8830;50.978;5.058;2023-04-01T14:06:28;2.10;;;2.00;;
17424;SDS011;8830;50.978;5.058;2023-04-01T14:09:23;2.40;;;2.20;;
17424;SDS011;8830;50.978;5.058;2023-04-01T14:12:02;1.33;;;1.13;;
17424;SDS011;8830;50.978;5.058;2023-04-01T14:14:43;1.20;;;1.10;;
17424;SDS011;8830;50.978;5.058;2023-04-01T14:26:21;1.00;;;0.90;;
17424;SDS011;8830;50.978;5.058;2023-04-01T14:29:00;0.93;;;0.87;;
17424;SDS011;8830;50.978;5.058;2023-04-01T14:31:41;1.13;;;0.97;;
17424;SDS011;8830;50.978;5.058;2023-04-01T14:34:25;1.03;;;0.87;;
17424;SDS011;8830;50.978;5.058;2023-04-01T14:37:11;0.73;;;0.70;;
17424;SDS011;8830;50.978;5.058;2023-04-01T14:42:54;1.33;;;1.17;;
17424;SDS011;8830;50.978;5.058;2023-04-01T14:45:42;2.53;;;1.27;;
17424;SDS011;8830;50.978;5.058;2023-04-01T14:48:25;1.10;;;1.10;;
17424;SDS011;8830;50.978;5.058;2023-04-01T14:50:56;1.40;;;1.30;;
17424;SDS011;8830;50.978;5.058;2023-04-01T14:53:30;1.27;;;1.13;;
17424;SDS011;8830;50.978;5.058;2023-04-01T14:56:05;1.67;;;1.10;;
17424;SDS011;8830;50.978;5.058;2023-04-01T14:58:40;1.40;;;1.30;;
17424;SDS011;8830;50.978;5.058;2023-04-01T15:01:19;2.47;;;1.50;;
17424;SDS011;8830;50.978;5.058;2023-04-01T15:04:01;1.60;;;1.50;;
17424;SDS011;8830;50.978;5.058;2023-04-01T15:06:52;1.50;;;1.40;;
17424;SDS011;8830;50.978;5.058;2023-04-01T15:09:27;1.83;;;1.47;;
17424;SDS011;8830;50.978;5.058;2023-04-01T15:12:09;1.23;;;1.17;;
17424;SDS011;8830;50.978;5.058;2023-04-01T15:14:49;1.90;;;1.80;;
17424;SDS011;8830;50.978;5.058;2023-04-01T15:17:40;1.00;;;1.00;;
17424;SDS011;8830;50.978;5.058;2023-04-01T15:20:31;1.17;;;1.03;;
17424;SDS011;8830;50.978;5.058;2023-04-01T15:23:15;13.43;;;2.40;;
17424;SDS011;8830;50.978;5.058;2023-04-01T15:25:51;1.00;;;1.00;;
17424;SDS011;8830;50.978;5.058;2023-04-01T15:28:36;1.57;;;1.10;;
17424;SDS011;8830;50.978;5.058;2023-04-01T15:31:10;1.53;;;1.40;;
17424;SDS011;8830;50.978;5.058;2023-04-01T15:33:48;2.00;;;1.13;;
17424;SDS011;8830;50.978;5.058;2023-04-01T15:36:28;1.40;;;1.30;;
17424;SDS011;8830;50.978;5.058;2023-04-01T15:39:00;1.47;;;1.10;;
17424;SDS011;8830;50.978;5.058;2023-04-01T15:41:39;1.20;;;1.10;;
17424;SDS011;8830;50.978;5.058;2023-04-01T15:47:36;18.30;;;13.03;;
17424;SDS011;8830;50.978;5.058;2023-04-01T15:50:21;2.00;;;1.90;;
17424;SDS011;8830;50.978;5.058;2023-04-01T15:59:15;0.50;;;0.50;;
17424;SDS011;8830;50.978;5.058;2023-04-01T16:01:53;0.90;;;0.60;;
17424;SDS011;8830;50.978;5.058;2023-04-01T16:04:33;0.73;;;0.70;;
17424;SDS011;8830;50.978;5.058;2023-04-01T16:07:17;1.83;;;0.70;;
17424;SDS011;8830;50.978;5.058;2023-04-01T16:09:57;0.50;;;0.50;;
17424;SDS011;8830;50.978;5.058;2023-04-01T16:12:47;2.77;;;0.97;;
17424;SDS011;8830;50.978;5.058;2023-04-01T16:15:29;0.70;;;0.70;;
17424;SDS011;8830;50.978;5.058;2023-04-01T16:18:18;1.70;;;1.60;;
17424;SDS011;8830;50.978;5.058;2023-04-01T16:20:57;1.30;;;1.20;;
17424;SDS011;8830;50.978;5.058;2023-04-01T16:23:34;2.27;;;1.30;;
17424;SDS011;8830;50.978;5.058;2023-04-01T16:26:07;1.63;;;1.13;;
17424;SDS011;8830;50.978;5.058;2023-04-01T16:28:42;1.57;;;1.40;;
17424;SDS011;8830;50.978;5.058;2023-04-01T16:31:25;2.30;;;2.10;;
17424;SDS011;8830;50.978;5.058;2023-04-01T16:34:01;3.07;;;2.80;;
17424;SDS011;8830;50.978;5.058;2023-04-01T16:36:34;4.60;;;3.60;;
17424;SDS011;8830;50.978;5.058;2023-04-01T16:42:01;4.60;;;4.30;;
17424;SDS011;8830;50.978;5.058;2023-04-01T16:44:46;4.83;;;4.43;;
17424;SDS011;8830;50.978;5.058;2023-04-01T16:47:17;5.70;;;4.47;;
17424;SDS011;8830;50.978;5.058;2023-04-01T16:49:50;5.17;;;4.77;;
17424;SDS011;8830;50.978;5.058;2023-04-01T16:52:35;4.47;;;4.17;;
17424;SDS011;8830;50.978;5.058;2023-04-01T16:55:13;3.07;;;2.87;;
17424;SDS011;8830;50.978;5.058;2023-04-01T16:57:43;2.17;;;2.07;;
17424;SDS011;8830;50.978;5.058;2023-04-01T17:00:16;3.03;;;2.83;;
17424;SDS011;8830;50.978;5.058;2023-04-01T17:02:52;3.57;;;2.50;;
17424;SDS011;8830;50.978;5.058;2023-04-01T17:05:36;2.50;;;2.30;;
17424;SDS011;8830;50.978;5.058;2023-04-01T17:08:15;2.60;;;2.40;;
17424;SDS011;8830;50.978;5.058;2023-04-01T17:10:51;2.17;;;2.00;;
17424;SDS011;8830;50.978;5.058;2023-04-01T17:13:29;2.33;;;1.80;;
17424;SDS011;8830;50.978;5.058;2023-04-01T17:19:22;2.30;;;2.10;;
17424;SDS011;8830;50.978;5.058;2023-04-01T17:22:07;3.20;;;2.20;;
17424;SDS011;8830;50.978;5.058;2023-04-01T17:24:49;2.63;;;2.43;;
17424;SDS011;8830;50.978;5.058;2023-04-01T17:27:31;4.53;;;4.13;;
17424;SDS011;8830;50.978;5.058;2023-04-01T17:33:06;3.03;;;2.83;;
17424;SDS011;8830;50.978;5.058;2023-04-01T17:35:50;2.03;;;1.70;;
17424;SDS011;8830;50.978;5.058;2023-04-01T17:38:34;3.07;;;1.40;;
17424;SDS011;8830;50.978;5.058;2023-04-01T17:41:19;1.60;;;1.50;;
17424;SDS011;8830;50.978;5.058;2023-04-01T17:43:55;2.00;;;1.40;;
17424;SDS011;8830;50.978;5.058;2023-04-01T17:46:33;1.90;;;1.70;;
17424;SDS011;8830;50.978;5.058;2023-04-01T17:49:17;1.67;;;1.50;;
17424;SDS011;8830;50.978;5.058;2023-04-01T17:51:54;1.70;;;1.60;;
17424;SDS011;8830;50.978;5.058;2023-04-01T17:54:43;1.60;;;1.50;;